Time;durP1;ratioP1;P1;durP2;ratioP2;P2;SDS_P1;SDS_P2;PMS_P1;PMS_P2;Temp;Humidity;BMP_temperature;BMP_pressure;BME280_temperature;BME280_humidity;BME280_pressure;Samples;Min_cycle;Max_cycle;Signal;HPM_P1;HPM_P2
2023/06/17 00:00:09;;;;;;;7.45;5.90;;;;;;;-140.66;100.00;55571.53;5124490;27;20026;-81
2023/06/17 00:02:55;;;;;;;7.75;6.28;;;;;;;-140.66;100.00;55571.53;5138880;27;20143;-82
2023/06/17 00:05:41;;;;;;;8.05;5.70;;;;;;;-140.66;100.00;55571.53;5123023;27;20082;-82
2023/06/17 00:08:27;;;;;;;7.68;5.57;;;;;;;-140.66;100.00;55571.53;5136718;27;20092;-82
2023/06/17 00:11:13;;;;;;;10.57;5.90;;;;;;;-140.66;100.00;55571.53;5120132;27;20019;-82
2023/06/17 00:14:00;;;;;;;9.27;5.63;;;;;;;-140.66;100.00;55571.53;5121247;27;20038;-82
2023/06/17 00:16:47;;;;;;;9.63;5.75;;;;;;;-140.66;100.00;55571.53;5135507;27;20038;-82
2023/06/17 00:19:35;;;;;;;8.70;6.22;;;;;;;-140.66;100.00;55571.53;5146948;27;20059;-80
2023/06/17 00:22:25;;;;;;;7.57;6.22;;;;;;;-140.66;100.00;55571.53;5135228;27;20076;-81
2023/06/17 00:25:12;;;;;;;8.20;6.20;;;;;;;-140.66;100.00;55571.53;5153076;27;20027;-81
2023/06/17 00:27:58;;;;;;;11.05;5.93;;;;;;;-140.66;100.00;55571.53;5151943;27;20015;-80
2023/06/17 00:30:47;;;;;;;13.00;6.47;;;;;;;-140.66;100.00;55571.53;5150895;27;20038;-80
2023/06/17 00:33:32;;;;;;;9.80;6.35;;;;;;;-140.66;100.00;55571.53;5136026;28;20038;-79
2023/06/17 00:36:18;;;;;;;9.27;6.50;;;;;;;-140.66;100.00;55571.53;5134074;28;20034;-80
2023/06/17 00:39:05;;;;;;;8.90;6.88;;;;;;;-140.66;100.00;55571.53;5149316;28;20035;-81
2023/06/17 00:41:51;;;;;;;9.70;6.15;;;;;;;-140.66;100.00;55571.53;5134763;28;20023;-83
2023/06/17 00:44:36;;;;;;;12.88;6.68;;;;;;;-140.66;100.00;55571.53;5149741;28;20064;-81
2023/06/17 00:47:23;;;;;;;7.68;6.03;;;;;;;-140.66;100.00;55571.53;5136383;28;20023;-79
2023/06/17 00:50:14;;;;;;;8.85;6.40;;;;;;;-140.66;100.00;55571.53;5134133;28;20061;-80
2023/06/17 00:53:00;;;;;;;9.43;6.30;;;;;;;-140.66;100.00;55571.53;5149094;28;20027;-79
2023/06/17 00:55:46;;;;;;;8.57;6.30;;;;;;;-140.66;100.00;55571.53;5134547;28;20053;-80
2023/06/17 00:58:33;;;;;;;9.23;6.20;;;;;;;-140.66;100.00;55571.53;5150407;28;20090;-80
2023/06/17 01:01:19;;;;;;;11.02;6.80;;;;;;;-140.66;100.00;55571.53;5148227;28;20034;-79
2023/06/17 01:04:06;;;;;;;8.77;6.43;;;;;;;-140.66;100.00;55571.53;5147238;28;20073;-80
2023/06/17 01:07:04;;;;;;;8.77;6.57;;;;;;;-140.66;100.00;55571.53;5148960;28;20407;-81
2023/06/17 01:10:02;;;;;;;12.07;7.28;;;;;;;-140.66;100.00;55571.53;5148413;28;20030;-80
2023/06/17 01:12:52;;;;;;;12.52;7.05;;;;;;;-140.66;100.00;55571.53;5130044;27;20042;-82
2023/06/17 01:15:39;;;;;;;9.15;7.07;;;;;;;-140.66;100.00;55571.53;5124862;27;20027;-82
2023/06/17 01:18:25;;;;;;;10.32;6.82;;;;;;;-140.66;100.00;55571.53;5125622;27;20364;-83
2023/06/17 01:21:12;;;;;;;12.60;7.38;;;;;;;-140.66;100.00;55571.53;5125521;27;20046;-81
2023/06/17 01:24:02;;;;;;;8.95;7.00;;;;;;;-140.66;100.00;55571.53;5127816;27;20023;-80
2023/06/17 01:26:54;;;;;;;10.25;6.82;;;;;;;-140.66;100.00;55571.53;5123157;27;20111;-81
2023/06/17 01:29:40;;;;;;;9.07;7.10;;;;;;;-140.66;100.00;55571.53;5138282;27;20038;-82
2023/06/17 01:32:25;;;;;;;11.20;7.45;;;;;;;-140.66;100.00;55571.53;5123520;27;20034;-83
2023/06/17 01:35:16;;;;;;;13.45;7.60;;;;;;;-140.66;100.00;55571.53;5137738;27;20084;-81
2023/06/17 01:38:23;;;;;;;11.60;7.40;;;;;;;-140.66;100.00;55571.53;5138698;27;20157;-83
2023/06/17 01:41:14;;;;;;;10.02;7.57;;;;;;;-140.66;100.00;55571.53;5137917;27;20038;-83
2023/06/17 01:44:02;;;;;;;10.00;7.18;;;;;;;-140.66;100.00;55571.53;5124409;27;20366;-83
2023/06/17 01:46:47;;;;;;;10.55;7.90;;;;;;;-140.66;100.00;55571.53;5149069;27;20031;-82
2023/06/17 01:49:33;;;;;;;9.13;7.35;;;;;;;-140.66;100.00;55571.53;5146699;27;20035;-82
2023/06/17 01:52:19;;;;;;;13.63;7.35;;;;;;;-140.66;100.00;55571.53;5145903;27;20022;-82
2023/06/17 01:55:05;;;;;;;10.20;8.00;;;;;;;-140.66;100.00;55571.53;5134749;27;20023;-82
2023/06/17 01:57:51;;;;;;;12.65;8.00;;;;;;;-140.66;100.00;55571.53;5138641;27;20050;-83
2023/06/17 02:00:37;;;;;;;10.95;8.10;;;;;;;-140.66;100.00;55571.53;5138674;27;20023;-83
2023/06/17 02:03:22;;;;;;;12.90;9.05;;;;;;;-140.66;100.00;55571.53;5139014;27;20080;-82
2023/06/17 02:06:08;;;;;;;11.85;8.57;;;;;;;-140.66;100.00;55571.53;5124177;27;20441;-81
2023/06/17 02:08:54;;;;;;;16.73;9.05;;;;;;;-140.66;100.00;55571.53;5123452;27;20057;-82
2023/06/17 02:11:39;;;;;;;12.38;8.88;;;;;;;-140.66;100.00;55571.53;5146813;27;20034;-82
2023/06/17 02:14:25;;;;;;;12.35;8.60;;;;;;;-140.66;100.00;55571.53;5135229;27;20023;-83
2023/06/17 02:17:12;;;;;;;10.35;8.20;;;;;;;-140.66;100.00;55571.53;5153532;27;20023;-83
2023/06/17 02:19:57;;;;;;;10.93;8.38;;;;;;;-140.66;100.00;55571.53;5137455;27;20057;-83
2023/06/17 02:22:43;;;;;;;14.00;8.52;;;;;;;-140.66;100.00;55571.53;5136228;27;20448;-83
2023/06/17 02:25:29;;;;;;;12.00;8.52;;;;;;;-140.66;100.00;55571.53;5136583;27;20368;-82
2023/06/17 02:28:15;;;;;;;10.75;8.57;;;;;;;-140.66;100.00;55571.53;5136582;27;20054;-82
2023/06/17 02:31:00;;;;;;;10.60;8.38;;;;;;;-140.66;100.00;55571.53;5137153;27;20114;-82
2023/06/17 02:33:46;;;;;;;13.32;9.10;;;;;;;-140.66;100.00;55571.53;5135934;27;20031;-81
2023/06/17 02:36:32;;;;;;;16.15;9.32;;;;;;;-140.66;100.00;55571.53;5136835;27;20019;-82
2023/06/17 02:39:17;;;;;;;15.18;9.75;;;;;;;-140.66;100.00;55571.53;5137545;27;20023;-81
2023/06/17 02:42:04;;;;;;;10.95;9.23;;;;;;;-140.66;100.00;55571.53;5136622;27;20110;-82
2023/06/17 02:44:50;;;;;;;15.00;9.95;;;;;;;-140.66;100.00;55571.53;5136831;27;20035;-81
2023/06/17 02:47:35;;;;;;;14.27;10.80;;;;;;;-140.66;100.00;55571.53;5137531;27;20084;-82
2023/06/17 02:50:23;;;;;;;14.60;10.50;;;;;;;-140.66;100.00;55571.53;5136778;27;20118;-81
2023/06/17 02:53:08;;;;;;;11.95;9.85;;;;;;;-140.66;100.00;55571.53;5136881;27;20027;-81
2023/06/17 02:55:55;;;;;;;11.20;9.88;;;;;;;-140.66;100.00;55571.53;5137328;27;20022;-82
2023/06/17 02:58:43;;;;;;;13.30;10.48;;;;;;;-140.66;100.00;55571.53;5136035;27;20038;-84
2023/06/17 03:01:29;;;;;;;13.88;11.75;;;;;;;-140.66;100.00;55571.53;5122010;27;20027;-82
2023/06/17 03:04:14;;;;;;;17.15;11.20;;;;;;;-140.66;100.00;55571.53;5136228;27;20118;-81
2023/06/17 03:07:05;;;;;;;14.50;10.85;;;;;;;-140.66;100.00;55571.53;5136915;27;20506;-81
2023/06/17 03:09:50;;;;;;;15.18;11.23;;;;;;;-140.66;100.00;55571.53;5136396;27;20443;-81
2023/06/17 03:12:36;;;;;;;15.73;11.48;;;;;;;-140.66;100.00;55571.53;5135980;27;20015;-81
2023/06/17 03:15:23;;;;;;;16.02;11.90;;;;;;;-140.66;100.00;55571.53;5135125;27;20035;-81
2023/06/17 03:18:09;;;;;;;18.75;12.57;;;;;;;-140.66;100.00;55571.53;5136935;27;20048;-81
2023/06/17 03:20:55;;;;;;;16.17;12.30;;;;;;;-140.66;100.00;55571.53;5135775;27;20089;-82
2023/06/17 03:23:42;;;;;;;14.15;12.20;;;;;;;-140.66;100.00;55571.53;5136485;27;20049;-82
2023/06/17 03:26:27;;;;;;;18.27;11.70;;;;;;;-140.66;100.00;55571.53;5136400;27;20361;-82
2023/06/17 03:29:13;;;;;;;16.25;12.65;;;;;;;-140.66;100.00;55571.53;5136670;27;20500;-81
2023/06/17 03:31:59;;;;;;;15.10;11.68;;;;;;;-140.66;100.00;55571.53;5136519;27;20027;-81
2023/06/17 03:34:46;;;;;;;15.85;11.98;;;;;;;-140.66;100.00;55571.53;5134807;27;20026;-81
2023/06/17 03:37:31;;;;;;;15.45;12.15;;;;;;;-140.66;100.00;55571.53;5134850;27;20023;-80
2023/06/17 03:40:17;;;;;;;18.88;12.30;;;;;;;-140.66;100.00;55571.53;5134972;27;20394;-80
2023/06/17 03:43:03;;;;;;;13.68;10.75;;;;;;;-140.66;100.00;55571.53;5135266;27;20023;-81
2023/06/17 03:45:49;;;;;;;15.07;10.77;;;;;;;-140.66;100.00;55571.53;5136420;27;20051;-81
2023/06/17 03:48:35;;;;;;;14.48;10.77;;;;;;;-140.66;100.00;55571.53;5134721;27;20414;-79
2023/06/17 03:51:21;;;;;;;15.25;11.13;;;;;;;-140.66;100.00;55571.53;5134277;27;20070;-80
2023/06/17 03:54:06;;;;;;;17.48;11.07;;;;;;;-140.66;100.00;55571.53;5134665;27;20035;-81
2023/06/17 03:56:52;;;;;;;14.10;11.02;;;;;;;-140.66;100.00;55571.53;5134247;27;20449;-81
2023/06/17 03:59:38;;;;;;;11.50;10.15;;;;;;;-140.66;100.00;55571.53;5120574;27;20027;-80
2023/06/17 04:02:24;;;;;;;13.82;10.93;;;;;;;-140.66;100.00;55571.53;5136269;27;20019;-81
2023/06/17 04:05:09;;;;;;;13.35;10.93;;;;;;;-140.66;100.00;55571.53;5135226;27;20077;-81
2023/06/17 04:07:59;;;;;;;15.60;11.15;;;;;;;-140.66;100.00;55571.53;5135405;27;20035;-82
2023/06/17 04:10:47;;;;;;;11.82;10.60;;;;;;;-140.66;100.00;55571.53;5135264;27;20028;-81
2023/06/17 04:13:33;;;;;;;12.60;9.77;;;;;;;-140.66;100.00;55571.53;5120085;27;20023;-81
2023/06/17 04:16:19;;;;;;;11.60;10.40;;;;;;;-140.66;100.00;55571.53;5135387;27;20038;-80
2023/06/17 04:19:05;;;;;;;14.45;10.98;;;;;;;-140.66;100.00;55571.53;5128713;27;20146;-79
2023/06/17 04:21:51;;;;;;;13.07;10.52;;;;;;;-140.66;100.00;55571.53;5115004;28;20088;-79
2023/06/17 04:24:38;;;;;;;18.40;10.80;;;;;;;-140.66;100.00;55571.53;5114837;28;20035;-79
2023/06/17 04:27:23;;;;;;;16.27;11.45;;;;;;;-140.66;100.00;55571.53;5099251;28;20019;-80
2023/06/17 04:30:10;;;;;;;17.02;12.65;;;;;;;-140.66;100.00;55571.53;5113873;28;20051;-78
2023/06/17 04:32:59;;;;;;;20.42;11.98;;;;;;;-140.66;100.00;55571.53;5114690;28;20460;-76
2023/06/17 04:35:47;;;;;;;14.15;11.18;;;;;;;-140.66;100.00;55571.53;5114856;28;20072;-75
2023/06/17 04:38:34;;;;;;;27.42;11.63;;;;;;;-140.66;100.00;55571.53;5115191;28;20115;-73
2023/06/17 04:41:20;;;;;;;21.60;13.15;;;;;;;-140.66;100.00;55571.53;5114208;28;20023;-75
2023/06/17 04:44:08;;;;;;;16.30;12.30;;;;;;;-140.66;100.00;55571.53;5099693;28;20036;-75
2023/06/17 04:46:53;;;;;;;16.25;12.02;;;;;;;-140.66;100.00;55571.53;5116979;28;20035;-72
2023/06/17 04:49:41;;;;;;;14.13;11.55;;;;;;;-140.66;100.00;55571.53;5118235;28;20035;-73
2023/06/17 04:52:30;;;;;;;17.15;13.10;;;;;;;-140.66;100.00;55571.53;5119026;28;20036;-76
2023/06/17 04:55:18;;;;;;;18.02;14.63;;;;;;;-140.66;100.00;55571.53;5103828;28;20027;-77
2023/06/17 04:58:04;;;;;;;18.80;14.07;;;;;;;-140.66;100.00;55571.53;5103171;28;20074;-75
2023/06/17 05:00:50;;;;;;;20.67;15.80;;;;;;;-140.66;100.00;55571.53;5103005;28;20026;-76
2023/06/17 05:03:36;;;;;;;20.55;14.85;;;;;;;-140.66;100.00;55571.53;5120438;28;20038;-75
2023/06/17 05:06:22;;;;;;;19.85;14.20;;;;;;;-140.66;100.00;55571.53;5102725;28;20034;-76
2023/06/17 05:09:08;;;;;;;16.60;13.40;;;;;;;-140.66;100.00;55571.53;5118394;28;20038;-75
2023/06/17 05:11:54;;;;;;;16.60;13.50;;;;;;;-140.66;100.00;55571.53;5117289;28;20030;-76
2023/06/17 05:14:40;;;;;;;18.45;13.98;;;;;;;-140.66;100.00;55571.53;5117377;28;20110;-76
2023/06/17 05:17:25;;;;;;;17.77;13.95;;;;;;;-140.66;100.00;55571.53;5116915;28;20031;-76
2023/06/17 05:20:11;;;;;;;19.20;14.15;;;;;;;-140.66;100.00;55571.53;5102990;28;20548;-75
2023/06/17 05:22:57;;;;;;;15.10;12.77;;;;;;;-140.66;100.00;55571.53;5102986;28;20035;-77
2023/06/17 05:25:42;;;;;;;16.88;12.90;;;;;;;-140.66;100.00;55571.53;5103502;28;20080;-77
2023/06/17 05:28:28;;;;;;;16.90;13.18;;;;;;;-140.66;100.00;55571.53;5102858;28;20102;-76
2023/06/17 05:31:14;;;;;;;17.40;13.50;;;;;;;-140.66;100.00;55571.53;5102196;28;20413;-76
2023/06/17 05:34:00;;;;;;;16.45;13.00;;;;;;;-140.66;100.00;55571.53;5104877;28;20475;-75
2023/06/17 05:36:45;;;;;;;15.35;12.75;;;;;;;-140.66;100.00;55571.53;5117028;28;20031;-73
2023/06/17 05:39:31;;;;;;;14.20;12.70;;;;;;;-140.66;100.00;55571.53;5117985;28;20024;-75
2023/06/17 05:42:17;;;;;;;18.55;13.32;;;;;;;-140.66;100.00;55571.53;5117396;28;20039;-75
2023/06/17 05:45:03;;;;;;;14.57;12.00;;;;;;;-140.66;100.00;55571.53;5117733;28;20039;-75
2023/06/17 05:47:48;;;;;;;14.98;12.77;;;;;;;-140.66;100.00;55571.53;5117092;28;20043;-75
2023/06/17 05:50:34;;;;;;;16.38;12.95;;;;;;;-140.66;100.00;55571.53;5117764;28;20481;-75
2023/06/17 05:53:20;;;;;;;16.20;13.27;;;;;;;-140.66;100.00;55571.53;5117237;28;20027;-77
2023/06/17 05:56:09;;;;;;;16.65;13.05;;;;;;;-140.66;100.00;55571.53;5118371;28;20027;-78
2023/06/17 05:58:55;;;;;;;18.77;12.95;;;;;;;-140.66;100.00;55571.53;5098269;28;20093;-76
2023/06/17 06:01:41;;;;;;;16.42;13.15;;;;;;;-140.66;100.00;55571.53;5101415;28;20369;-77
2023/06/17 06:04:27;;;;;;;15.70;12.45;;;;;;;-140.66;100.00;55571.53;5101678;28;20031;-76
2023/06/17 06:07:12;;;;;;;14.07;11.80;;;;;;;-140.66;100.00;55571.53;5116289;28;20016;-76
2023/06/17 06:09:58;;;;;;;14.25;10.75;;;;;;;-140.66;100.00;55571.53;5117804;28;20441;-76
2023/06/17 06:12:44;;;;;;;15.30;11.93;;;;;;;-140.66;100.00;55571.53;5116324;28;20342;-77
2023/06/17 06:15:30;;;;;;;13.85;10.85;;;;;;;-140.66;100.00;55571.53;5115862;28;20028;-75
2023/06/17 06:18:15;;;;;;;14.55;10.90;;;;;;;-140.66;100.00;55571.53;5101428;28;20027;-77
2023/06/17 06:21:01;;;;;;;14.65;11.90;;;;;;;-140.66;100.00;55571.53;5135393;27;20043;-76
2023/06/17 06:23:49;;;;;;;15.00;10.82;;;;;;;-140.66;100.00;55571.53;5135919;27;20092;-78
2023/06/17 06:26:34;;;;;;;12.85;11.07;;;;;;;-140.66;100.00;55571.53;5135505;27;20066;-78
2023/06/17 06:29:20;;;;;;;12.73;10.75;;;;;;;-140.66;100.00;55571.53;5136577;27;20037;-77
2023/06/17 06:32:07;;;;;;;15.98;10.75;;;;;;;-140.66;100.00;55571.53;5136273;27;20027;-77
2023/06/17 06:34:52;;;;;;;12.25;9.93;;;;;;;-140.66;100.00;55571.53;5135769;27;20023;-78
2023/06/17 06:37:38;;;;;;;11.23;9.65;;;;;;;-140.66;100.00;55571.53;5134750;27;20031;-77
2023/06/17 06:40:24;;;;;;;13.55;9.60;;;;;;;-140.66;100.00;55571.53;5135213;27;20031;-77
2023/06/17 06:43:10;;;;;;;10.32;9.23;;;;;;;-140.66;100.00;55571.53;5135545;27;20038;-78
2023/06/17 06:45:55;;;;;;;11.57;9.00;;;;;;;-140.66;100.00;55571.53;5142054;27;20062;-76
2023/06/17 06:48:41;;;;;;;13.63;10.30;;;;;;;-140.66;100.00;55571.53;5149351;27;20046;-77
2023/06/17 06:51:27;;;;;;;14.10;9.45;;;;;;;-140.66;100.00;55571.53;5153421;27;20015;-75
2023/06/17 06:54:13;;;;;;;11.85;9.90;;;;;;;-140.66;100.00;55571.53;5153054;27;20023;-77
2023/06/17 06:56:58;;;;;;;11.02;9.15;;;;;;;-140.66;100.00;55571.53;5153336;27;20113;-78
2023/06/17 06:59:44;;;;;;;10.10;9.10;;;;;;;-140.66;100.00;55571.53;5137092;27;20377;-79
2023/06/17 07:02:30;;;;;;;10.73;9.60;;;;;;;-140.66;100.00;55571.53;5135906;27;20065;-78
2023/06/17 07:05:16;;;;;;;10.55;9.32;;;;;;;-140.66;100.00;55571.53;5136776;27;20122;-78
2023/06/17 07:08:02;;;;;;;12.32;9.70;;;;;;;-140.66;100.00;55571.53;5141251;27;20027;-77
2023/06/17 07:10:48;;;;;;;13.52;10.07;;;;;;;-140.66;100.00;55571.53;5153150;27;20015;-78
2023/06/17 07:13:34;;;;;;;11.35;9.40;;;;;;;-140.66;100.00;55571.53;5139107;27;20023;-78
2023/06/17 07:16:20;;;;;;;11.30;9.18;;;;;;;-140.66;100.00;55571.53;5149391;27;20030;-77
2023/06/17 07:19:05;;;;;;;11.90;9.43;;;;;;;-140.66;100.00;55571.53;5136320;27;20130;-78
2023/06/17 07:21:51;;;;;;;10.63;8.85;;;;;;;-140.66;100.00;55571.53;5135531;27;20062;-74
2023/06/17 07:24:37;;;;;;;15.80;9.20;;;;;;;-140.66;100.00;55571.53;5134504;27;20027;-75
2023/06/17 07:27:22;;;;;;;12.20;9.90;;;;;;;-140.66;100.00;55571.53;5134671;27;20123;-73
2023/06/17 07:30:09;;;;;;;11.98;8.65;;;;;;;-140.66;100.00;55571.53;5136165;27;20517;-74
2023/06/17 07:32:55;;;;;;;11.30;10.07;;;;;;;-140.66;100.00;55571.53;5150477;27;20034;-72
2023/06/17 07:35:41;;;;;;;9.88;8.88;;;;;;;-140.66;100.00;55571.53;5135993;27;20023;-79
2023/06/17 07:38:27;;;;;;;10.82;8.70;;;;;;;-140.66;100.00;55571.53;5135008;27;20114;-78
2023/06/17 07:41:13;;;;;;;10.88;8.82;;;;;;;-140.66;100.00;55571.53;5133917;27;20034;-78
2023/06/17 07:44:01;;;;;;;13.32;9.77;;;;;;;-140.66;100.00;55571.53;5134161;27;20043;-78
2023/06/17 07:46:47;;;;;;;10.05;8.65;;;;;;;-140.66;100.00;55571.53;5133689;27;20034;-78
2023/06/17 07:49:33;;;;;;;11.25;8.95;;;;;;;-140.66;100.00;55571.53;5134244;27;20027;-79
2023/06/17 07:52:19;;;;;;;13.55;8.23;;;;;;;-140.66;100.00;55571.53;5134227;27;20079;-77
2023/06/17 07:55:06;;;;;;;11.35;9.25;;;;;;;-140.66;100.00;55571.53;5134200;27;20027;-78
2023/06/17 07:57:52;;;;;;;9.57;8.57;;;;;;;-140.66;100.00;55571.53;5133987;27;20122;-74
2023/06/17 08:00:38;;;;;;;11.75;9.25;;;;;;;-140.66;100.00;55571.53;5135056;27;20027;-73
2023/06/17 08:03:24;;;;;;;9.40;8.38;;;;;;;-140.66;100.00;55571.53;5133259;27;20059;-75
2023/06/17 08:06:13;;;;;;;9.50;8.50;;;;;;;-140.66;100.00;55571.53;5133550;27;20038;-75
2023/06/17 08:08:59;;;;;;;9.73;8.23;;;;;;;-140.66;100.00;55571.53;5134443;27;20075;-75
2023/06/17 08:11:47;;;;;;;9.30;8.13;;;;;;;-140.66;100.00;55571.53;5132148;27;20034;-75
2023/06/17 08:14:33;;;;;;;9.25;7.88;;;;;;;-140.66;100.00;55571.53;5134216;27;20026;-75
2023/06/17 08:17:19;;;;;;;9.13;7.55;;;;;;;-140.66;100.00;55571.53;5133440;27;20338;-76
2023/06/17 08:20:05;;;;;;;10.10;7.72;;;;;;;-140.66;100.00;55571.53;5133821;27;20066;-76
2023/06/17 08:22:51;;;;;;;8.30;7.50;;;;;;;-140.66;100.00;55571.53;5134510;27;20030;-75
2023/06/17 08:25:39;;;;;;;9.95;7.97;;;;;;;-140.66;100.00;55571.53;5134625;27;20054;-74
2023/06/17 08:28:24;;;;;;;9.32;8.13;;;;;;;-140.66;100.00;55571.53;5132975;27;20030;-75
2023/06/17 08:31:11;;;;;;;9.40;7.03;;;;;;;-140.66;100.00;55571.53;5134342;27;20112;-74
2023/06/17 08:33:57;;;;;;;11.23;7.95;;;;;;;-140.66;100.00;55571.53;5134150;27;20038;-76
2023/06/17 08:36:45;;;;;;;10.30;8.23;;;;;;;-140.66;100.00;55571.53;5133698;28;20083;-73
2023/06/17 08:39:31;;;;;;;9.25;7.32;;;;;;;-140.66;100.00;55571.53;5135214;28;20023;-74
2023/06/17 08:42:17;;;;;;;10.30;7.88;;;;;;;-140.66;100.00;55571.53;5133680;28;20028;-74
2023/06/17 08:45:06;;;;;;;7.95;7.15;;;;;;;-140.66;100.00;55571.53;5132972;28;20110;-74
2023/06/17 08:47:52;;;;;;;11.73;7.30;;;;;;;-140.66;100.00;55571.53;5134118;28;20106;-73
2023/06/17 08:50:38;;;;;;;11.00;7.28;;;;;;;-140.66;100.00;55571.53;5133701;28;20015;-73
2023/06/17 08:53:26;;;;;;;8.38;7.20;;;;;;;-140.66;100.00;55571.53;5133757;28;20035;-74
2023/06/17 08:56:12;;;;;;;12.38;7.53;;;;;;;-140.66;100.00;55571.53;5134879;28;20338;-74
2023/06/17 08:58:58;;;;;;;11.65;7.32;;;;;;;-140.66;100.00;55571.53;5133728;28;20460;-72
2023/06/17 09:01:44;;;;;;;12.15;7.82;;;;;;;-140.66;100.00;55571.53;5133752;28;20056;-78
2023/06/17 09:04:31;;;;;;;10.93;8.32;;;;;;;-140.66;100.00;55571.53;5133777;28;20027;-79
2023/06/17 09:07:16;;;;;;;10.80;8.20;;;;;;;-140.66;100.00;55571.53;5134464;28;20047;-79
2023/06/17 09:10:07;;;;;;;10.88;8.27;;;;;;;-140.66;100.00;55571.53;5132553;28;20026;-79
2023/06/17 09:12:57;;;;;;;10.80;8.18;;;;;;;-140.66;100.00;55571.53;5134836;28;20027;-77
2023/06/17 09:15:43;;;;;;;11.30;8.02;;;;;;;-140.66;100.00;55571.53;5133489;28;20046;-77
2023/06/17 09:18:32;;;;;;;8.85;7.82;;;;;;;-140.66;100.00;55571.53;5132988;28;20074;-78
2023/06/17 09:21:19;;;;;;;9.48;8.48;;;;;;;-140.66;100.00;55571.53;5132514;28;20372;-79
2023/06/17 09:24:08;;;;;;;10.93;8.43;;;;;;;-140.66;100.00;55571.53;5133021;28;20031;-74
2023/06/17 09:26:54;;;;;;;10.07;8.23;;;;;;;-140.66;100.00;55571.53;5133745;28;20383;-75
2023/06/17 09:29:40;;;;;;;10.95;7.85;;;;;;;-140.66;100.00;55571.53;5133530;28;20023;-74
2023/06/17 09:32:37;;;;;;;10.82;9.68;;;;;;;-140.66;100.00;55571.53;5106445;27;20023;-74
2023/06/17 09:35:23;;;;;;;9.30;8.32;;;;;;;-140.66;100.00;55571.53;5137612;27;20428;-77
2023/06/17 09:38:09;;;;;;;10.00;7.47;;;;;;;-140.66;100.00;55571.53;5137286;27;20353;-79
2023/06/17 09:40:55;;;;;;;10.90;8.23;;;;;;;-140.66;100.00;55571.53;5137506;27;20030;-78
2023/06/17 09:43:41;;;;;;;9.70;7.53;;;;;;;-140.66;100.00;55571.53;5137866;27;20027;-78
2023/06/17 09:46:35;;;;;;;10.65;7.80;;;;;;;-140.66;100.00;55571.53;5138584;27;20023;-78
2023/06/17 09:49:23;;;;;;;11.68;8.25;;;;;;;-140.66;100.00;55571.53;5138295;27;20027;-77
2023/06/17 09:52:10;;;;;;;9.43;7.60;;;;;;;-140.66;100.00;55571.53;5136644;27;20407;-77
2023/06/17 09:54:58;;;;;;;9.40;8.05;;;;;;;-140.66;100.00;55571.53;5137517;27;20096;-77
2023/06/17 09:57:44;;;;;;;11.98;9.02;;;;;;;-140.66;100.00;55571.53;5137001;27;20030;-77
2023/06/17 10:00:31;;;;;;;9.50;8.50;;;;;;;-140.66;100.00;55571.53;5137969;27;20472;-77
2023/06/17 10:03:17;;;;;;;12.52;8.23;;;;;;;-140.66;100.00;55571.53;5137260;27;20046;-78
2023/06/17 10:06:11;;;;;;;8.85;7.95;;;;;;;-140.66;100.00;55571.53;5137208;27;20083;-79
2023/06/17 10:08:57;;;;;;;10.10;7.90;;;;;;;-140.66;100.00;55571.53;5137842;27;20102;-80
2023/06/17 10:11:48;;;;;;;9.90;7.75;;;;;;;-140.66;100.00;55571.53;5139592;27;20043;-78
2023/06/17 10:14:35;;;;;;;12.93;8.27;;;;;;;-140.66;100.00;55571.53;5137545;27;20023;-78
2023/06/17 10:17:22;;;;;;;9.95;7.80;;;;;;;-140.66;100.00;55571.53;5140758;27;20455;-78
2023/06/17 10:20:10;;;;;;;10.95;8.77;;;;;;;-140.66;100.00;55571.53;5136479;27;20044;-77
2023/06/17 10:22:58;;;;;;;9.75;7.80;;;;;;;-140.66;100.00;55571.53;5136425;27;20027;-81
2023/06/17 10:25:45;;;;;;;9.82;7.53;;;;;;;-140.66;100.00;55571.53;5136735;27;20027;-78
2023/06/17 10:28:44;;;;;;;9.73;7.68;;;;;;;-140.66;100.00;55571.53;5137686;27;20023;-79
2023/06/17 10:31:31;;;;;;;12.13;8.27;;;;;;;-140.66;100.00;55571.53;5137334;27;20189;-78
2023/06/17 10:34:21;;;;;;;8.27;7.13;;;;;;;-140.66;100.00;55571.53;5138690;27;20444;-78
2023/06/17 10:37:09;;;;;;;10.73;6.95;;;;;;;-140.66;100.00;55571.53;5137903;27;20031;-79
2023/06/17 10:39:54;;;;;;;9.32;7.35;;;;;;;-140.66;100.00;55571.53;5136075;27;20023;-78
2023/06/17 10:42:51;;;;;;;7.88;6.95;;;;;;;-140.66;100.00;55571.53;5136568;27;20035;-77
2023/06/17 10:45:54;;;;;;;12.93;7.50;;;;;;;-140.66;100.00;55571.53;5135021;27;20019;-77
2023/06/17 10:48:40;;;;;;;9.23;6.97;;;;;;;-140.66;100.00;55571.53;5136939;27;20106;-78
2023/06/17 10:51:29;;;;;;;8.45;7.47;;;;;;;-140.66;100.00;55571.53;5135706;27;20448;-77
2023/06/17 10:54:15;;;;;;;9.00;7.63;;;;;;;-140.66;100.00;55571.53;5135966;27;20047;-78
2023/06/17 10:57:01;;;;;;;8.07;7.13;;;;;;;-140.66;100.00;55571.53;5135540;27;20084;-77
2023/06/17 10:59:47;;;;;;;7.80;7.00;;;;;;;-140.66;100.00;55571.53;5135963;27;20042;-78
2023/06/17 11:02:33;;;;;;;14.65;7.70;;;;;;;-140.66;100.00;55571.53;5137019;27;20027;-78
2023/06/17 11:05:19;;;;;;;12.43;7.72;;;;;;;-140.66;100.00;55571.53;5136472;27;20460;-79
2023/06/17 11:08:05;;;;;;;9.23;8.00;;;;;;;-140.66;100.00;55571.53;5136550;27;20031;-79
2023/06/17 11:10:51;;;;;;;8.90;7.82;;;;;;;-140.66;100.00;55571.53;5136719;27;20465;-78
2023/06/17 11:13:38;;;;;;;8.23;7.43;;;;;;;-140.66;100.00;55571.53;5135505;27;20114;-78
2023/06/17 11:16:24;;;;;;;14.32;8.07;;;;;;;-140.66;100.00;55571.53;5136822;27;20084;-78
2023/06/17 11:19:10;;;;;;;8.57;7.60;;;;;;;-140.66;100.00;55571.53;5135786;27;20478;-79
2023/06/17 11:22:03;;;;;;;12.43;7.45;;;;;;;-140.66;100.00;55571.53;5134798;27;20037;-78
2023/06/17 11:24:48;;;;;;;12.15;7.78;;;;;;;-140.66;100.00;55571.53;5135179;27;20023;-78
2023/06/17 11:27:34;;;;;;;12.25;7.78;;;;;;;-140.66;100.00;55571.53;5136169;27;20030;-77
2023/06/17 11:30:24;;;;;;;9.57;7.82;;;;;;;-140.66;100.00;55571.53;5136649;27;20050;-78
2023/06/17 11:33:10;;;;;;;11.00;7.32;;;;;;;-140.66;100.00;55571.53;5135319;27;20046;-79
2023/06/17 11:35:56;;;;;;;9.48;7.63;;;;;;;-140.66;100.00;55571.53;5135252;27;20023;-78
2023/06/17 11:38:44;;;;;;;10.02;7.25;;;;;;;-140.66;100.00;55571.53;5135831;27;20033;-79
2023/06/17 11:41:31;;;;;;;10.40;7.25;;;;;;;-140.66;100.00;55571.53;5135506;27;20034;-80
2023/06/17 11:44:18;;;;;;;11.23;7.57;;;;;;;-140.66;100.00;55571.53;5134766;27;20038;-78
2023/06/17 11:47:09;;;;;;;11.52;7.50;;;;;;;-140.66;100.00;55571.53;5135112;27;20038;-78
2023/06/17 11:49:57;;;;;;;12.65;8.10;;;;;;;-140.66;100.00;55571.53;5134423;27;20034;-77
2023/06/17 11:52:58;;;;;;;7.55;6.60;;;;;;;-140.66;100.00;55571.53;5134791;27;20326;-78
2023/06/17 11:55:45;;;;;;;7.93;7.05;;;;;;;-140.66;100.00;55571.53;5134688;27;20034;-79
2023/06/17 11:58:38;;;;;;;11.38;7.68;;;;;;;-140.66;100.00;55571.53;5135690;27;20037;-81
2023/06/17 12:01:25;;;;;;;10.15;7.30;;;;;;;-140.66;100.00;55571.53;5136250;27;20524;-78
2023/06/17 12:04:12;;;;;;;8.80;7.20;;;;;;;-140.66;100.00;55571.53;5135069;27;20105;-77
2023/06/17 12:06:58;;;;;;;11.77;7.18;;;;;;;-140.66;100.00;55571.53;5135960;27;20031;-80
2023/06/17 12:09:54;;;;;;;8.55;6.43;;;;;;;-140.66;100.00;55571.53;5135282;27;20035;-78
2023/06/17 12:12:40;;;;;;;11.45;7.35;;;;;;;-140.66;100.00;55571.53;5135867;27;20023;-79
2023/06/17 12:15:29;;;;;;;7.65;6.85;;;;;;;-140.66;100.00;55571.53;5135518;27;20035;-78
2023/06/17 12:18:18;;;;;;;9.52;7.45;;;;;;;-140.66;100.00;55571.53;5135642;27;20496;-77
2023/06/17 12:21:10;;;;;;;11.02;8.98;;;;;;;-140.66;100.00;55571.53;5145508;27;20031;-77
2023/06/17 12:23:57;;;;;;;12.25;8.85;;;;;;;-140.66;100.00;55571.53;5152871;27;20017;-78
2023/06/17 12:26:46;;;;;;;11.15;8.00;;;;;;;-140.66;100.00;55571.53;5155530;27;20113;-79
2023/06/17 12:29:31;;;;;;;9.77;8.77;;;;;;;-140.66;100.00;55571.53;5138869;27;20373;-80